Vero Beach, FL (32967)

7:24 PM EST on November 22, 2014 (GMT -0500)
Gifford | Change Station
CLOSE
Current Station
Personal Weather Station
Location: Vero Beach, FL
Elevation: 24 ft
Nearby Weather Stations

Elev 24 ft 27.68 °N, 80.43 °W | Updated 20 minutes ago

Overcast
Overcast
74.2 °F
Feels Like 74 °F
N
5.0
Wind Variable Wind from East
Gusts 16.0 mph

Today
High -- | Low -- °F
--% Chance of Precip.
Yesterday
High -- | Low -- °F
Precip. -- in
6:48 AM 5:27 PM
New Moon, 0% visible
Pressure 30.14 in
Visibility 10.0 miles
Clouds Few 2700 ft
Mostly Cloudy 4500 ft
Overcast 8000 ft
Heat Index 74 °F
Dew Point 69 °F
Humidity 85%
Rainfall 0.22 in
Snow Depth Not available.
UV 0.0 out of 12
Pollen 4.40 out of 12
Air Quality Not available.
Flu Activity Not available.
METAR KVRB 222353Z 10013G21KT 10SM FEW027 BKN045 OVC080 22/19 A3014 RMK AO2 SLP204 60006 T02220189 10222 20211 55000

More Conditions Fewer Conditions

Pressure 30.14 in
Visibility 10.0 miles
Clouds Few 2700 ft
Mostly Cloudy 4500 ft
Overcast 8000 ft
Heat Index 74 °F
Dew Point 69 °F
Humidity 85%
Rainfall 0.22 in
Snow Depth Not available.
UV 0.0 out of 12
Pollen 4.40 out of 12
Air Quality Not available.
Flu Activity Not available.
METAR KVRB 222353Z 10013G21KT 10SM FEW027 BKN045 OVC080 22/19 A3014 RMK AO2 SLP204 60006 T02220189 10222 20211 55000

More Conditions Fewer Conditions

Nowcast | as of 7:15 PM EST on November 22, 2014

Moist south to southwest winds moving over an easterly surface windflow off the ocean will result in the bottom of the cloud cover slowly lower through the evening with light rain or drizzle the main weather element through the night. The southerly wind will push the precipitation off to the north and northeast. Temperatures are expected to remain in the upper 60s and lower 70s through the evening. Additional details...including graphics are available online at: http://www.Srh.NOAA.Gov/mlb/blog.Php

×

10-Day Weather Forecast

Almanac

Astronomy

Nov. 22, 2014 Rise Set
Actual Time
Civil Twilight
Nautical Twilight
Astronomical Twilight
Moon
Length of Visible Light
Length of Day
Tomorrow will be .
, % of the Moon is Illuminated

Today's Extremes

State Highs State Lows

Community

WunderPhotos

Upload Photos

1,772,932 photos uploaded!

WunderBlogs® & News

Nearby

Air Quality

  Air Quality AQ Index Pollutant
Not available.

Snow Depth

Station Depth Elevation

Earthquake Activity

City Distance Mag. Time & Date
Minimum magnitude displayed is 2.5.

Coastal Water Temperatures

Place Temperature

Nearby Weather Stations